Champion, NE (69023)

11:26 PM MDT on August 27, 2014 (GMT -0600)
Imperial Municipal | Change Station
CLOSE
Current Station
Airport
Location: Imperial,
Elevation: 3274 ft
Nearby Weather Stations

Elev 3274 ft 40.51 °N, 101.62 °W | Updated 19 minutes ago

Light Thunderstorms and Rain
Light Thunderstorm Rain
61 °F
Feels Like 61 °F
N
13
Wind Variable Wind from NNE

Today
High -- | Low -- °F
--% Chance of Precip.
Yesterday
High -- | Low -- °F
Precip. -- in
6:09 AM 7:26 PM
Waxing Crescent, 6% visible
Pressure 30.07 in
Visibility 8.0 miles
Clouds Scattered Clouds 3000 ft
Overcast 9500 ft
Dew Point 59 °F
Humidity 93%
Rainfall 0.71 in
Snow Depth Not available.
UV 0 out of 12
Pollen 4.90 out of 12
Air Quality Not available.
Flu Activity Not available.
SPECI KIML 280507Z AUTO 02011KT 8SM -TSRA SCT030 OVC095 16/15 A3007 RMK AO2 LTG DSNT ALQDS TSE01B03 P0002 T01610150

More Conditions Fewer Conditions

Pressure 30.07 in
Visibility 8.0 miles
Clouds Scattered Clouds 3000 ft
Overcast 9500 ft
Dew Point 59 °F
Humidity 93%
Rainfall 0.71 in
Snow Depth Not available.
UV 0 out of 12
Pollen 4.90 out of 12
Air Quality Not available.
Flu Activity Not available.
SPECI KIML 280507Z AUTO 02011KT 8SM -TSRA SCT030 OVC095 16/15 A3007 RMK AO2 LTG DSNT ALQDS TSE01B03 P0002 T01610150

More Conditions Fewer Conditions

10-Day Weather Forecast

Almanac

Astronomy

Aug. 27, 2014 Rise Set
Actual Time 6:09 AM MDT 7:26 PM MDT
Civil Twilight 5:41 AM MDT 7:54 PM MDT
Nautical Twilight 5:07 AM MDT 8:28 PM MDT
Astronomical Twilight 4:31 AM MDT 9:04 PM MDT
Moon 8:08 AM MDT (8/27) 8:19 PM MDT (8/27)
Length of Visible Light 14h 13m
Length of Day
13h 17m
Tomorrow will be 2m 32s shorter.
Waxing Crescent, 6% of the Moon is Illuminated
Aug 28
Waxing Crescent
Sep 2
First Quarter
Sep 8
Full
Sep 15
Last Quarter
Sep 24
New

Yesterday's Extremes

State Highs State Lows

Community

WunderPhotos

Upload Photos

1,747,909 photos uploaded!

Nearby

Snow Depth

Station Depth Elevation
No new snow has been reported.

Earthquake Activity

City Distance Mag. Time & Date
No recent earthquake activity has been reported nearby.
Minimum magnitude displayed is 2.5.

Coastal Water Temperatures

Place Temperature
No Stations Reporting

Nearby Weather Stations